sensor_id;sensor_type;location;lat;lon;timestamp;pressure;altitude;pressure_sealevel;temperature;humidity
67397;BME280;57728;50.448;18.824;2023-08-07T00:01:13;96659.59;;;16.12;79.95
67397;BME280;57728;50.448;18.824;2023-08-07T00:03:14;96668.78;;;16.22;79.86
67397;BME280;57728;50.448;18.824;2023-08-07T00:05:20;96672.66;;;16.21;79.83
67397;BME280;57728;50.448;18.824;2023-08-07T00:07:21;96663.88;;;16.19;79.95
67397;BME280;57728;50.448;18.824;2023-08-07T00:09:25;96664.47;;;16.15;79.63
67397;BME280;57728;50.448;18.824;2023-08-07T00:11:26;96572.69;;;15.56;79.86
67397;BME280;57728;50.448;18.824;2023-08-07T00:13:29;96617.88;;;15.77;80.34
67397;BME280;57728;50.448;18.824;2023-08-07T00:15:30;96664.06;;;16.08;80.37
67397;BME280;57728;50.448;18.824;2023-08-07T00:17:32;96651.75;;;16.06;80.42
67397;BME280;57728;50.448;18.824;2023-08-07T00:19:33;96637.97;;;15.92;80.61
67397;BME280;57728;50.448;18.824;2023-08-07T00:21:34;96625.25;;;15.82;80.84
67397;BME280;57728;50.448;18.824;2023-08-07T00:23:37;96616.09;;;15.68;80.99
67397;BME280;57728;50.448;18.824;2023-08-07T00:25:38;96656.75;;;15.85;80.81
67397;BME280;57728;50.448;18.824;2023-08-07T00:27:39;96623.00;;;15.65;80.96
67397;BME280;57728;50.448;18.824;2023-08-07T00:29:41;96650.28;;;15.75;80.85
67397;BME280;57728;50.448;18.824;2023-08-07T00:31:42;96615.75;;;15.55;80.87
67397;BME280;57728;50.448;18.824;2023-08-07T00:33:44;96629.91;;;15.62;80.85
67397;BME280;57728;50.448;18.824;2023-08-07T00:35:46;96511.75;;;14.88;81.08
67397;BME280;57728;50.448;18.824;2023-08-07T00:37:47;96617.06;;;15.58;81.31
67397;BME280;57728;50.448;18.824;2023-08-07T00:39:48;96652.50;;;15.73;81.42
67397;BME280;57728;50.448;18.824;2023-08-07T00:41:50;96625.91;;;15.55;81.60
67397;BME280;57728;50.448;18.824;2023-08-07T00:43:51;96634.66;;;15.57;81.91
67397;BME280;57728;50.448;18.824;2023-08-07T00:45:53;96653.41;;;15.69;81.99
67397;BME280;57728;50.448;18.824;2023-08-07T00:47:55;96649.03;;;15.68;82.08
67397;BME280;57728;50.448;18.824;2023-08-07T00:49:58;96589.00;;;15.28;82.24
67397;BME280;57728;50.448;18.824;2023-08-07T00:52:01;96643.03;;;15.65;82.27
67397;BME280;57728;50.448;18.824;2023-08-07T00:54:05;96560.19;;;15.11;82.36
67397;BME280;57728;50.448;18.824;2023-08-07T00:56:08;96647.41;;;15.67;82.07
67397;BME280;57728;50.448;18.824;2023-08-07T00:58:10;96645.47;;;15.67;81.95
67397;BME280;57728;50.448;18.824;2023-08-07T01:00:14;96625.84;;;15.60;82.39
67397;BME280;57728;50.448;18.824;2023-08-07T01:02:18;96614.13;;;15.54;81.92
67397;BME280;57728;50.448;18.824;2023-08-07T01:04:21;96614.44;;;15.53;82.25
67397;BME280;57728;50.448;18.824;2023-08-07T01:06:24;96618.09;;;15.62;82.03
67397;BME280;57728;50.448;18.824;2023-08-07T01:08:27;96618.34;;;15.65;82.07
67397;BME280;57728;50.448;18.824;2023-08-07T01:13:40;96516.28;;;14.98;82.11
67397;BME280;57728;50.448;18.824;2023-08-07T01:15:55;96574.94;;;15.35;82.33
67397;BME280;57728;50.448;18.824;2023-08-07T01:18:07;96634.13;;;15.74;82.48
67397;BME280;57728;50.448;18.824;2023-08-07T01:20:11;96612.94;;;15.60;82.67
67397;BME280;57728;50.448;18.824;2023-08-07T01:22:17;96586.56;;;15.45;82.72
67397;BME280;57728;50.448;18.824;2023-08-07T01:24:19;96586.56;;;15.45;82.70
67397;BME280;57728;50.448;18.824;2023-08-07T01:26:21;96627.06;;;15.68;82.78
67397;BME280;57728;50.448;18.824;2023-08-07T01:28:50;96540.28;;;15.06;83.12
67397;BME280;57728;50.448;18.824;2023-08-07T01:31:13;96609.00;;;15.47;83.41
67397;BME280;57728;50.448;18.824;2023-08-07T01:33:25;96610.72;;;15.43;83.50
67397;BME280;57728;50.448;18.824;2023-08-07T01:35:36;96604.72;;;15.41;83.71
67397;BME280;57728;50.448;18.824;2023-08-07T01:37:45;96609.31;;;15.46;83.73
67397;BME280;57728;50.448;18.824;2023-08-07T01:39:51;96602.59;;;15.38;83.79
67397;BME280;57728;50.448;18.824;2023-08-07T01:41:55;96612.72;;;15.38;83.74
67397;BME280;57728;50.448;18.824;2023-08-07T01:43:57;96633.94;;;15.51;83.91
67397;BME280;57728;50.448;18.824;2023-08-07T01:45:59;96577.22;;;15.08;84.29
67397;BME280;57728;50.448;18.824;2023-08-07T01:48:00;96622.63;;;15.34;84.41
67397;BME280;57728;50.448;18.824;2023-08-07T01:50:02;96582.69;;;15.08;84.17
67397;BME280;57728;50.448;18.824;2023-08-07T01:52:04;96540.56;;;14.85;84.03
67397;BME280;57728;50.448;18.824;2023-08-07T01:54:07;96605.75;;;15.26;84.54
67397;BME280;57728;50.448;18.824;2023-08-07T01:56:08;96574.78;;;15.07;84.18
67397;BME280;57728;50.448;18.824;2023-08-07T01:58:09;96634.50;;;15.48;84.68
67397;BME280;57728;50.448;18.824;2023-08-07T02:00:11;96636.97;;;15.50;84.37
67397;BME280;57728;50.448;18.824;2023-08-07T02:02:16;96633.63;;;15.53;84.56
67397;BME280;57728;50.448;18.824;2023-08-07T02:04:17;96620.88;;;15.43;84.69
67397;BME280;57728;50.448;18.824;2023-08-07T02:06:19;96587.97;;;15.24;84.67
67397;BME280;57728;50.448;18.824;2023-08-07T02:08:20;96631.69;;;15.53;84.29
67397;BME280;57728;50.448;18.824;2023-08-07T02:10:22;96615.91;;;15.45;84.59
67397;BME280;57728;50.448;18.824;2023-08-07T02:12:24;96583.06;;;15.21;84.49
67397;BME280;57728;50.448;18.824;2023-08-07T02:14:27;96614.34;;;15.39;84.23
67397;BME280;57728;50.448;18.824;2023-08-07T02:16:28;96638.56;;;15.51;84.27
67397;BME280;57728;50.448;18.824;2023-08-07T02:18:31;96617.16;;;15.34;84.35
67397;BME280;57728;50.448;18.824;2023-08-07T02:20:32;96641.91;;;15.47;84.60
67397;BME280;57728;50.448;18.824;2023-08-07T02:22:33;96644.16;;;15.45;84.36
67397;BME280;57728;50.448;18.824;2023-08-07T02:24:35;96615.81;;;15.31;84.70
67397;BME280;57728;50.448;18.824;2023-08-07T02:26:36;96636.72;;;15.46;84.70
67397;BME280;57728;50.448;18.824;2023-08-07T02:28:38;96498.69;;;14.60;84.56
67397;BME280;57728;50.448;18.824;2023-08-07T02:30:40;96613.06;;;15.31;84.58
67397;BME280;57728;50.448;18.824;2023-08-07T02:32:41;96614.50;;;15.28;84.66
67397;BME280;57728;50.448;18.824;2023-08-07T02:34:45;96593.84;;;15.17;84.65
67397;BME280;57728;50.448;18.824;2023-08-07T02:36:47;96551.28;;;14.82;84.63
67397;BME280;57728;50.448;18.824;2023-08-07T02:38:48;96622.44;;;15.30;84.57
67397;BME280;57728;50.448;18.824;2023-08-07T02:40:49;96645.63;;;15.38;84.76
67397;BME280;57728;50.448;18.824;2023-08-07T02:42:51;96633.16;;;15.26;84.83
67397;BME280;57728;50.448;18.824;2023-08-07T02:44:52;96559.50;;;14.82;84.76
67397;BME280;57728;50.448;18.824;2023-08-07T02:46:53;96641.53;;;15.35;85.08
67397;BME280;57728;50.448;18.824;2023-08-07T02:48:55;96638.50;;;15.37;85.02
67397;BME280;57728;50.448;18.824;2023-08-07T02:50:57;96607.84;;;15.16;84.92
67397;BME280;57728;50.448;18.824;2023-08-07T02:52:59;96611.81;;;15.23;85.03
67397;BME280;57728;50.448;18.824;2023-08-07T02:55:02;96620.66;;;15.20;84.77
67397;BME280;57728;50.448;18.824;2023-08-07T02:57:03;96632.06;;;15.27;84.76
67397;BME280;57728;50.448;18.824;2023-08-07T02:59:04;96596.78;;;15.02;84.56
67397;BME280;57728;50.448;18.824;2023-08-07T03:01:07;96645.63;;;15.38;85.00
67397;BME280;57728;50.448;18.824;2023-08-07T03:03:09;96646.44;;;15.38;84.92
67397;BME280;57728;50.448;18.824;2023-08-07T03:05:10;96625.28;;;15.20;84.88
67397;BME280;57728;50.448;18.824;2023-08-07T03:07:12;96635.09;;;15.26;84.65
67397;BME280;57728;50.448;18.824;2023-08-07T03:09:13;96628.88;;;15.20;84.70
67397;BME280;57728;50.448;18.824;2023-08-07T03:11:14;96624.19;;;15.21;85.00
67397;BME280;57728;50.448;18.824;2023-08-07T03:13:17;96623.38;;;15.20;85.09
67397;BME280;57728;50.448;18.824;2023-08-07T03:15:18;96627.22;;;15.19;85.12
67397;BME280;57728;50.448;18.824;2023-08-07T03:17:19;96653.03;;;15.37;85.19
67397;BME280;57728;50.448;18.824;2023-08-07T03:19:22;96615.81;;;15.12;85.01
67397;BME280;57728;50.448;18.824;2023-08-07T03:21:23;96630.22;;;15.23;84.97
67397;BME280;57728;50.448;18.824;2023-08-07T03:23:26;96632.34;;;15.26;85.12
67397;BME280;57728;50.448;18.824;2023-08-07T03:25:30;96583.44;;;14.95;84.75
67397;BME280;57728;50.448;18.824;2023-08-07T03:27:31;96655.19;;;15.40;85.04
67397;BME280;57728;50.448;18.824;2023-08-07T03:29:33;96599.44;;;15.07;84.68
67397;BME280;57728;50.448;18.824;2023-08-07T03:31:35;96629.31;;;15.27;84.94
67397;BME280;57728;50.448;18.824;2023-08-07T03:33:37;96644.38;;;15.30;85.13
67397;BME280;57728;50.448;18.824;2023-08-07T03:35:39;96638.13;;;15.24;85.00
67397;BME280;57728;50.448;18.824;2023-08-07T03:37:43;96642.78;;;15.24;85.17
67397;BME280;57728;50.448;18.824;2023-08-07T03:39:44;96653.09;;;15.32;84.89
67397;BME280;57728;50.448;18.824;2023-08-07T03:41:49;96644.72;;;15.23;85.30
67397;BME280;57728;50.448;18.824;2023-08-07T03:43:53;96634.94;;;15.17;85.20
67397;BME280;57728;50.448;18.824;2023-08-07T03:45:55;96647.13;;;15.30;84.96
67397;BME280;57728;50.448;18.824;2023-08-07T03:47:59;96615.59;;;15.08;84.75
67397;BME280;57728;50.448;18.824;2023-08-07T03:50:01;96654.75;;;15.33;85.14
67397;BME280;57728;50.448;18.824;2023-08-07T03:52:04;96636.81;;;15.22;85.24
67397;BME280;57728;50.448;18.824;2023-08-07T03:54:05;96664.59;;;15.34;85.08
67397;BME280;57728;50.448;18.824;2023-08-07T03:56:07;96655.53;;;15.34;85.06
67397;BME280;57728;50.448;18.824;2023-08-07T03:58:10;96626.19;;;15.15;85.08
67397;BME280;57728;50.448;18.824;2023-08-07T04:00:11;96671.94;;;15.39;85.15
67397;BME280;57728;50.448;18.824;2023-08-07T04:02:16;96646.06;;;15.26;85.00
67397;BME280;57728;50.448;18.824;2023-08-07T04:04:19;96647.13;;;15.30;84.82
67397;BME280;57728;50.448;18.824;2023-08-07T04:06:20;96674.09;;;15.42;85.13
67397;BME280;57728;50.448;18.824;2023-08-07T04:08:24;96608.84;;;15.01;84.73
67397;BME280;57728;50.448;18.824;2023-08-07T04:10:25;96658.97;;;15.44;85.02
67397;BME280;57728;50.448;18.824;2023-08-07T04:12:26;96646.56;;;15.28;84.90
67397;BME280;57728;50.448;18.824;2023-08-07T04:14:28;96677.56;;;15.47;84.99
67397;BME280;57728;50.448;18.824;2023-08-07T04:16:30;96673.72;;;15.48;84.98
67397;BME280;57728;50.448;18.824;2023-08-07T04:18:33;96678.91;;;15.50;84.67
67397;BME280;57728;50.448;18.824;2023-08-07T04:20:37;96662.66;;;15.35;84.96
67397;BME280;57728;50.448;18.824;2023-08-07T04:22:38;96651.75;;;15.29;84.70
67397;BME280;57728;50.448;18.824;2023-08-07T04:24:39;96683.06;;;15.47;85.18
67397;BME280;57728;50.448;18.824;2023-08-07T04:26:41;96606.69;;;14.98;85.00
67397;BME280;57728;50.448;18.824;2023-08-07T04:28:42;96636.56;;;15.18;84.82
67397;BME280;57728;50.448;18.824;2023-08-07T04:30:45;96691.59;;;15.46;85.27
67397;BME280;57728;50.448;18.824;2023-08-07T04:32:52;96676.06;;;15.36;85.31
67397;BME280;57728;50.448;18.824;2023-08-07T04:34:53;96692.81;;;15.54;85.49
67397;BME280;57728;50.448;18.824;2023-08-07T04:36:54;96651.47;;;15.31;84.81
67397;BME280;57728;50.448;18.824;2023-08-07T04:38:57;96694.41;;;15.60;85.18
67397;BME280;57728;50.448;18.824;2023-08-07T04:40:59;96691.06;;;15.63;84.94
67397;BME280;57728;50.448;18.824;2023-08-07T04:43:00;96699.22;;;15.68;85.13
67397;BME280;57728;50.448;18.824;2023-08-07T04:45:02;96674.38;;;15.59;84.90
67397;BME280;57728;50.448;18.824;2023-08-07T04:47:04;96670.75;;;15.64;84.29
67397;BME280;57728;50.448;18.824;2023-08-07T04:49:05;96667.47;;;15.62;84.79
67397;BME280;57728;50.448;18.824;2023-08-07T04:51:07;96693.25;;;15.85;84.24
67397;BME280;57728;50.448;18.824;2023-08-07T04:53:09;96679.63;;;15.75;83.75
67397;BME280;57728;50.448;18.824;2023-08-07T04:55:10;96692.41;;;15.85;83.83
67397;BME280;57728;50.448;18.824;2023-08-07T04:57:12;96641.97;;;15.42;83.31
67397;BME280;57728;50.448;18.824;2023-08-07T04:59:13;96678.31;;;15.72;83.84
67397;BME280;57728;50.448;18.824;2023-08-07T05:01:14;96706.13;;;15.85;83.75
67397;BME280;57728;50.448;18.824;2023-08-07T05:03:17;96684.38;;;15.69;83.73
67397;BME280;57728;50.448;18.824;2023-08-07T05:05:19;96709.41;;;15.87;83.46
67397;BME280;57728;50.448;18.824;2023-08-07T05:07:21;96699.78;;;15.89;83.54
67397;BME280;57728;50.448;18.824;2023-08-07T05:09:23;96623.97;;;15.36;82.71
67397;BME280;57728;50.448;18.824;2023-08-07T05:11:24;96699.91;;;15.79;83.41
67397;BME280;57728;50.448;18.824;2023-08-07T05:13:25;96705.75;;;15.72;83.28
67397;BME280;57728;50.448;18.824;2023-08-07T05:15:27;96653.94;;;15.33;83.41
67397;BME280;57728;50.448;18.824;2023-08-07T05:17:29;96678.00;;;15.36;83.51
67397;BME280;57728;50.448;18.824;2023-08-07T05:19:30;96693.13;;;15.33;84.03
67397;BME280;57728;50.448;18.824;2023-08-07T05:21:32;96705.34;;;15.41;84.73
67397;BME280;57728;50.448;18.824;2023-08-07T05:23:34;96690.53;;;15.23;85.09
67397;BME280;57728;50.448;18.824;2023-08-07T05:25:35;96676.88;;;15.18;84.98
67397;BME280;57728;50.448;18.824;2023-08-07T05:27:38;96710.69;;;15.32;85.10
67397;BME280;57728;50.448;18.824;2023-08-07T05:29:40;96686.78;;;15.13;84.87
67397;BME280;57728;50.448;18.824;2023-08-07T05:31:44;96679.66;;;15.12;85.08
67397;BME280;57728;50.448;18.824;2023-08-07T05:33:46;96693.31;;;15.18;85.27
67397;BME280;57728;50.448;18.824;2023-08-07T05:35:47;96706.28;;;15.31;84.93
67397;BME280;57728;50.448;18.824;2023-08-07T05:37:48;96698.16;;;15.26;85.27
67397;BME280;57728;50.448;18.824;2023-08-07T05:39:50;96696.50;;;15.25;85.08
67397;BME280;57728;50.448;18.824;2023-08-07T05:41:51;96715.00;;;15.38;84.83
67397;BME280;57728;50.448;18.824;2023-08-07T05:43:54;96670.88;;;15.16;84.95
67397;BME280;57728;50.448;18.824;2023-08-07T05:45:56;96612.72;;;14.75;84.57
67397;BME280;57728;50.448;18.824;2023-08-07T05:47:57;96684.59;;;15.16;85.08
67397;BME280;57728;50.448;18.824;2023-08-07T05:49:59;96687.31;;;15.16;84.66
67397;BME280;57728;50.448;18.824;2023-08-07T05:52:01;96725.38;;;15.41;85.08
67397;BME280;57728;50.448;18.824;2023-08-07T05:54:02;96720.69;;;15.42;84.80
67397;BME280;57728;50.448;18.824;2023-08-07T05:56:04;96728.13;;;15.41;84.54
67397;BME280;57728;50.448;18.824;2023-08-07T05:58:05;96738.03;;;15.37;84.36
67397;BME280;57728;50.448;18.824;2023-08-07T06:00:08;96734.25;;;15.33;84.36
67397;BME280;57728;50.448;18.824;2023-08-07T06:02:14;96680.97;;;14.96;84.35
67397;BME280;57728;50.448;18.824;2023-08-07T06:04:16;96732.69;;;15.27;84.54
67397;BME280;57728;50.448;18.824;2023-08-07T06:06:18;96734.91;;;15.25;84.46
67397;BME280;57728;50.448;18.824;2023-08-07T06:08:19;96697.34;;;15.01;84.44
67397;BME280;57728;50.448;18.824;2023-08-07T06:10:22;96730.66;;;15.13;84.67
67397;BME280;57728;50.448;18.824;2023-08-07T06:12:23;96705.34;;;14.98;84.64
67397;BME280;57728;50.448;18.824;2023-08-07T06:14:24;96671.34;;;14.74;84.44
67397;BME280;57728;50.448;18.824;2023-08-07T06:16:27;96728.84;;;15.04;84.89
67397;BME280;57728;50.448;18.824;2023-08-07T06:18:28;96724.28;;;14.94;84.66
67397;BME280;57728;50.448;18.824;2023-08-07T06:20:30;96692.75;;;14.72;85.08
67397;BME280;57728;50.448;18.824;2023-08-07T06:22:32;96735.03;;;14.90;85.59
67397;BME280;57728;50.448;18.824;2023-08-07T06:24:33;96756.50;;;15.07;86.11
67397;BME280;57728;50.448;18.824;2023-08-07T06:26:34;96763.31;;;15.10;86.42
67397;BME280;57728;50.448;18.824;2023-08-07T06:28:36;96757.53;;;15.11;86.30
67397;BME280;57728;50.448;18.824;2023-08-07T06:30:37;96687.28;;;14.72;86.11
67397;BME280;57728;50.448;18.824;2023-08-07T06:32:39;96759.63;;;15.20;85.94
67397;BME280;57728;50.448;18.824;2023-08-07T06:34:41;96610.16;;;14.31;86.12
67397;BME280;57728;50.448;18.824;2023-08-07T06:36:43;96761.22;;;15.26;86.21
67397;BME280;57728;50.448;18.824;2023-08-07T06:38:44;96739.91;;;15.18;86.28
67397;BME280;57728;50.448;18.824;2023-08-07T06:40:46;96638.69;;;14.54;86.18
67397;BME280;57728;50.448;18.824;2023-08-07T06:42:47;96752.41;;;15.29;86.26
67397;BME280;57728;50.448;18.824;2023-08-07T06:44:48;96728.44;;;15.16;86.53
67397;BME280;57728;50.448;18.824;2023-08-07T06:46:50;96742.63;;;15.23;86.22
67397;BME280;57728;50.448;18.824;2023-08-07T06:48:52;96768.72;;;15.39;86.21
67397;BME280;57728;50.448;18.824;2023-08-07T06:50:53;96763.78;;;15.41;85.87
67397;BME280;57728;50.448;18.824;2023-08-07T06:52:55;96744.91;;;15.35;86.17
67397;BME280;57728;50.448;18.824;2023-08-07T06:54:56;96760.09;;;15.51;86.35
67397;BME280;57728;50.448;18.824;2023-08-07T06:56:57;96745.63;;;15.45;86.36
67397;BME280;57728;50.448;18.824;2023-08-07T06:58:59;96703.69;;;15.21;85.83
67397;BME280;57728;50.448;18.824;2023-08-07T07:01:00;96764.63;;;15.61;85.62
67397;BME280;57728;50.448;18.824;2023-08-07T07:03:02;96737.09;;;15.47;85.97
67397;BME280;57728;50.448;18.824;2023-08-07T07:05:04;96763.72;;;15.65;85.45
67397;BME280;57728;50.448;18.824;2023-08-07T07:07:06;96763.94;;;15.69;85.62
67397;BME280;57728;50.448;18.824;2023-08-07T07:09:07;96746.53;;;15.60;85.80
67397;BME280;57728;50.448;18.824;2023-08-07T07:11:09;96768.78;;;15.77;85.54
67397;BME280;57728;50.448;18.824;2023-08-07T07:13:10;96645.22;;;15.06;85.66
67397;BME280;57728;50.448;18.824;2023-08-07T07:15:12;96776.09;;;15.87;85.67
67397;BME280;57728;50.448;18.824;2023-08-07T07:17:14;96780.69;;;15.92;85.58
67397;BME280;57728;50.448;18.824;2023-08-07T07:19:15;96776.53;;;15.94;84.93
67397;BME280;57728;50.448;18.824;2023-08-07T07:21:17;96785.66;;;15.90;84.59
67397;BME280;57728;50.448;18.824;2023-08-07T07:23:19;96689.94;;;15.26;84.32
67397;BME280;57728;50.448;18.824;2023-08-07T07:25:21;96770.78;;;15.72;84.94
67397;BME280;57728;50.448;18.824;2023-08-07T07:27:22;96783.34;;;15.78;84.75
67397;BME280;57728;50.448;18.824;2023-08-07T07:29:24;96708.59;;;15.24;84.96
67397;BME280;57728;50.448;18.824;2023-08-07T07:31:25;96795.16;;;15.73;84.82
67397;BME280;57728;50.448;18.824;2023-08-07T07:33:26;96763.88;;;15.55;84.78
67397;BME280;57728;50.448;18.824;2023-08-07T07:35:29;96743.22;;;15.39;85.19
67397;BME280;57728;50.448;18.824;2023-08-07T07:37:31;96745.16;;;15.38;85.17
67397;BME280;57728;50.448;18.824;2023-08-07T07:39:34;96758.16;;;15.52;85.16
67397;BME280;57728;50.448;18.824;2023-08-07T07:41:36;96811.13;;;15.71;85.22
67397;BME280;57728;50.448;18.824;2023-08-07T07:43:37;96725.78;;;15.29;85.11
67397;BME280;57728;50.448;18.824;2023-08-07T07:45:38;96784.03;;;15.64;84.89
67397;BME280;57728;50.448;18.824;2023-08-07T07:47:40;96772.25;;;15.64;84.95
67397;BME280;57728;50.448;18.824;2023-08-07T07:49:46;96767.88;;;15.63;85.13
67397;BME280;57728;50.448;18.824;2023-08-07T07:51:50;96815.25;;;15.93;84.80
67397;BME280;57728;50.448;18.824;2023-08-07T07:53:52;96796.69;;;15.85;84.78
67397;BME280;57728;50.448;18.824;2023-08-07T07:55:54;96808.66;;;15.94;84.17
67397;BME280;57728;50.448;18.824;2023-08-07T07:57:55;96789.63;;;15.78;84.59
67397;BME280;57728;50.448;18.824;2023-08-07T07:59:57;96815.25;;;15.93;84.39
67397;BME280;57728;50.448;18.824;2023-08-07T08:01:59;96673.97;;;15.09;84.68
67397;BME280;57728;50.448;18.824;2023-08-07T08:04:00;96799.38;;;15.90;84.72
67397;BME280;57728;50.448;18.824;2023-08-07T08:06:02;96794.03;;;15.98;84.87
67397;BME280;57728;50.448;18.824;2023-08-07T08:08:05;96788.84;;;15.97;84.23
67397;BME280;57728;50.448;18.824;2023-08-07T08:10:08;96813.28;;;16.18;84.06
67397;BME280;57728;50.448;18.824;2023-08-07T08:12:11;96829.44;;;16.19;83.96
67397;BME280;57728;50.448;18.824;2023-08-07T08:14:12;96813.72;;;16.25;84.15
67397;BME280;57728;50.448;18.824;2023-08-07T08:16:13;96787.53;;;16.13;83.98
67397;BME280;57728;50.448;18.824;2023-08-07T08:18:15;96793.53;;;16.15;83.60
67397;BME280;57728;50.448;18.824;2023-08-07T08:20:16;96826.47;;;16.35;83.79
67397;BME280;57728;50.448;18.824;2023-08-07T08:22:19;96803.84;;;16.24;83.51
67397;BME280;57728;50.448;18.824;2023-08-07T08:24:21;96832.53;;;16.31;83.44
67397;BME280;57728;50.448;18.824;2023-08-07T08:26:22;96797.47;;;16.09;83.28
67397;BME280;57728;50.448;18.824;2023-08-07T08:28:23;96804.00;;;16.13;83.16
67397;BME280;57728;50.448;18.824;2023-08-07T08:30:25;96823.56;;;16.26;83.02
67397;BME280;57728;50.448;18.824;2023-08-07T08:32:27;96821.50;;;16.18;83.02
67397;BME280;57728;50.448;18.824;2023-08-07T08:34:28;96811.50;;;16.08;83.10
67397;BME280;57728;50.448;18.824;2023-08-07T08:36:30;96832.50;;;16.18;82.79
67397;BME280;57728;50.448;18.824;2023-08-07T08:38:31;96843.47;;;16.18;82.92
67397;BME280;57728;50.448;18.824;2023-08-07T08:40:35;96836.94;;;16.13;83.22
67397;BME280;57728;50.448;18.824;2023-08-07T08:42:40;96841.84;;;16.16;82.92
67397;BME280;57728;50.448;18.824;2023-08-07T08:44:48;96821.44;;;16.04;82.88
67397;BME280;57728;50.448;18.824;2023-08-07T08:46:59;96800.03;;;15.81;82.72
67397;BME280;57728;50.448;18.824;2023-08-07T08:49:04;96816.44;;;15.87;83.01
67397;BME280;57728;50.448;18.824;2023-08-07T08:51:08;96819.78;;;15.84;83.36
67397;BME280;57728;50.448;18.824;2023-08-07T08:53:13;96841.53;;;15.99;83.35
67397;BME280;57728;50.448;18.824;2023-08-07T08:55:16;96824.13;;;15.85;83.80
67397;BME280;57728;50.448;18.824;2023-08-07T08:57:22;96830.75;;;15.84;83.72
67397;BME280;57728;50.448;18.824;2023-08-07T08:59:23;96787.28;;;15.47;83.69
67397;BME280;57728;50.448;18.824;2023-08-07T09:01:29;96840.72;;;15.74;84.48
67397;BME280;57728;50.448;18.824;2023-08-07T09:03:32;96849.75;;;15.75;84.73
67397;BME280;57728;50.448;18.824;2023-08-07T09:05:35;96800.28;;;15.37;85.16
67397;BME280;57728;50.448;18.824;2023-08-07T09:07:38;96851.22;;;15.67;85.56
67397;BME280;57728;50.448;18.824;2023-08-07T09:09:41;96777.53;;;15.12;85.84
67397;BME280;57728;50.448;18.824;2023-08-07T09:11:45;96858.22;;;15.54;86.00
67397;BME280;57728;50.448;18.824;2023-08-07T09:13:48;96878.13;;;15.65;86.29
67397;BME280;57728;50.448;18.824;2023-08-07T09:15:51;96893.56;;;15.61;86.37
67397;BME280;57728;50.448;18.824;2023-08-07T09:17:54;96877.59;;;15.39;85.74
67397;BME280;57728;50.448;18.824;2023-08-07T09:19:58;96829.81;;;14.91;86.02
67397;BME280;57728;50.448;18.824;2023-08-07T09:21:59;96888.06;;;15.07;85.86
67397;BME280;57728;50.448;18.824;2023-08-07T09:24:01;96882.63;;;14.97;86.49
67397;BME280;57728;50.448;18.824;2023-08-07T09:26:04;96876.19;;;14.83;86.54
67397;BME280;57728;50.448;18.824;2023-08-07T09:28:06;96909.25;;;14.91;86.38
67397;BME280;57728;50.448;18.824;2023-08-07T09:30:07;96893.78;;;14.76;87.20
67397;BME280;57728;50.448;18.824;2023-08-07T09:32:14;96913.47;;;14.78;87.37
67397;BME280;57728;50.448;18.824;2023-08-07T09:34:20;96852.13;;;14.35;87.04
67397;BME280;57728;50.448;18.824;2023-08-07T09:36:23;96907.00;;;14.64;86.86
67397;BME280;57728;50.448;18.824;2023-08-07T09:38:28;96940.94;;;14.73;86.91
67397;BME280;57728;50.448;18.824;2023-08-07T09:40:31;96921.00;;;14.63;87.24
67397;BME280;57728;50.448;18.824;2023-08-07T09:42:32;96931.06;;;14.72;87.19
67397;BME280;57728;50.448;18.824;2023-08-07T09:44:36;96906.50;;;14.62;87.25
67397;BME280;57728;50.448;18.824;2023-08-07T09:46:44;96886.75;;;14.60;87.70
67397;BME280;57728;50.448;18.824;2023-08-07T09:48:46;96916.28;;;14.73;87.10
67397;BME280;57728;50.448;18.824;2023-08-07T09:50:49;96915.94;;;14.80;87.33
67397;BME280;57728;50.448;18.824;2023-08-07T09:52:50;96924.38;;;14.89;86.67
67397;BME280;57728;50.448;18.824;2023-08-07T09:54:55;96923.75;;;14.97;86.77
67397;BME280;57728;50.448;18.824;2023-08-07T09:57:01;96935.13;;;15.15;86.68
67397;BME280;57728;50.448;18.824;2023-08-07T09:59:03;96888.22;;;14.87;85.97
67397;BME280;57728;50.448;18.824;2023-08-07T10:01:05;96939.72;;;15.24;86.26
67397;BME280;57728;50.448;18.824;2023-08-07T10:03:09;96919.75;;;15.19;86.10
67397;BME280;57728;50.448;18.824;2023-08-07T10:05:11;96938.72;;;15.39;85.89
67397;BME280;57728;50.448;18.824;2023-08-07T10:07:13;96940.63;;;15.44;85.29
67397;BME280;57728;50.448;18.824;2023-08-07T10:09:17;96827.84;;;14.68;84.69
67397;BME280;57728;50.448;18.824;2023-08-07T10:11:18;96948.56;;;15.45;84.19
67397;BME280;57728;50.448;18.824;2023-08-07T10:13:21;96948.56;;;15.45;84.18
67397;BME280;57728;50.448;18.824;2023-08-07T10:15:25;96952.63;;;15.48;83.93
67397;BME280;57728;50.448;18.824;2023-08-07T10:17:27;96926.22;;;15.28;83.71
67397;BME280;57728;50.448;18.824;2023-08-07T10:19:30;96938.50;;;15.36;83.24
67397;BME280;57728;50.448;18.824;2023-08-07T10:21:35;96954.56;;;15.47;83.58
67397;BME280;57728;50.448;18.824;2023-08-07T10:23:38;96961.09;;;15.52;83.35
67397;BME280;57728;50.448;18.824;2023-08-07T10:25:45;96944.69;;;15.46;83.65
67397;BME280;57728;50.448;18.824;2023-08-07T10:27:54;96961.06;;;15.57;83.60
67397;BME280;57728;50.448;18.824;2023-08-07T10:30:00;96934.38;;;15.38;83.63
67397;BME280;57728;50.448;18.824;2023-08-07T10:32:07;96944.75;;;15.41;83.11
67397;BME280;57728;50.448;18.824;2023-08-07T10:34:11;96940.66;;;15.39;83.00
67397;BME280;57728;50.448;18.824;2023-08-07T10:36:16;96909.00;;;15.22;82.86
67397;BME280;57728;50.448;18.824;2023-08-07T10:38:22;96954.84;;;15.46;82.50
67397;BME280;57728;50.448;18.824;2023-08-07T10:40:25;96913.38;;;15.23;82.41
67397;BME280;57728;50.448;18.824;2023-08-07T10:42:27;96973.09;;;15.61;82.58
67397;BME280;57728;50.448;18.824;2023-08-07T10:44:32;96961.78;;;15.68;82.27